SMRA60 UAOL 161500
AAXX 16151
60007 22681 22106 10243 20171 39941 40192 57014 82500 333 60007=
60060 32465 60208 10237 20192 40169 56014 86800 333 82813 84616 95000=
60101 32460 63106 10220 20146 40144 55000 86800 333 84816 84620=
60105 32458 72806 10206 20168 40149 53004 878// 333 84816 84620=
60106 41560 61602 10192 20170 40150 56002 86200 333 86820=
60107 32460 72202 10216 20176 40144 53005 8587/ 333 82816 85630 87460 95380=
60115 31570 73111 10153 20142 40141 55000 72162 878// 333 83826 86840=
60127 41558 82704 10165 20160 39554 40138 54000 78288 882// 333 88823=
60135 32457 62811 10222 20165 40153 58002 86800 333 84813 85620=
60141 42465 72513 10203 20146 39490 40151 57006 878// 333 82813 85826=
60150 32458 72710 10202 20156 39508 40141 55006 878// 333 82813 86816=
60155 32460 73014 10224 20159 40164 55002 878// 333 83816 85626=
60156 32460 63115 10233 20175 40159 58007 86800 333 83816 84620=
60185 32970 62604 10236 20169 40173 56004 86200 333 86816=
60192 32562 52808 10244 20098 40142 56008 83230 333 83833=
60195 32558 22622 10179 20063 38491 48506 53002 82200 333 82830 95500=
60210 32889 12010 10295 21100 38942 48483 57016 81030 333 81358=
60220 32/// /3103 10227 20190 40173 8////=
60230 45560 43406 10260 20121 40135 58014 83280 333 83826=
60252 45560 32510 10250 20156 40149 58019 83800 333 82623 83833=
60265 31958 13226 10296 21116 38850 48495 56036 707// 81072 333 81360=
60285 32460 33618 10232 20141 40169 56012 83500 333 83616=
60318 32560 72707 10223 20154 40136 53001 878// 333 84823 85646=
60340 31565 72903 10195 20147 40135 55002 7016/ 8587/ 333 83820 83630=
60563 42560 61218 10189 20155 39245 48479 57012 86200 333 86826=
60577 42560 2//// 10256 20094 39149 48466 56009 81102 333 81830 95900=
60585 41950 42220 10342 21002 40051 56016 70700 80002 333 84070=
60603 42660 52218 10359 20023 40071 57013 82202 333 82840 83070=
60638 42960 52620 10350 21026 40084 55010 80002 333 85073=
61053 42765 70404 10376 20198 39839 40084 81948 333 59008 81950 86280 94941 95831=
61766 42460 70605 10306 20232 30077 40121 81132 333 58025 81814 86360=
61769 42460 71804 10300 20252 82231 333 82814 86075 94924 95834=
61781 42460 8//// 10295 20240 30024 40049 83232 333 58003 83814 83360 85075 94939 95879=
61989 21458 70916 10235 20197 40191 78022 87840 333 59007 69907 85816 84650=
62458 32960 02815 10272 20179 40126 54000=
63631 32570 50000 10300 20171 38894 48/// 82906 333 10308 82820 81922 85278 555 10215=
64406 41558 73606 10290 20208 39/// 40/// 71799 879// 333 5//// 87620 81930 94948 95878=
64512 41460 70000 10250 20212 3//// 40/// 71796 8381/ 333 5//// 83616 87460 86920 94959 95839=
64570 42460 61604 10271 20226 39596 40091 85102 333 58015 85813 86073 94919 95839=
64713 42660 63606 10354 20183 3//// 4//// 81102 333 5//// 81840 86075 94909=
64722 42660 61004 10320 20218 3//// 4//// 82102 333 5//// 82840 86075=
64759 42962 00408 10326 21002 3//// 4//// 333 5////=
64761 42962 3//// 10362 21028 3//// 4//// 80002 333 5//// 83075=
64810 42460 71812 10295 20237 30078 4//// 8227/ 333 59003 82815 87364=
67305 42580 40504 10320 20206 4//// 5//// 84200=
67324 42580 52110 10250 20211 40156 56005 85200=
67327 42580 6//// 10259 20189 40143 55003 86800=
68004 46/// /2507 10333 2//// 38535 48491 57008 333 10355 20333 91014 555 91017=
68098 42989 02710 10185 20101 30056 40163 57015 333 10205 20184 91014=
68109 42989 13602 10306 21190 38312 4//// 57013 80002 333 1//// 2//// 9////=
68155 46/// /0302 10343 20070 39156 48515 57011 333 10355 20339 91005=
68163 46/// /3505 10324 20148 39003 48519 57010 333 10347 20323 91009=
68172 46/// /0909 10289 20138 39325 48526 58005 333 10318 20288 91016=
68179 46/// /0912 10265 20134 39096 48540 57007 333 10292 20265 91017=
68185 46/// /3410 10250 20110 38583 48523 57008 333 10280 20250 91017=
68188 46/// /0802 10276 20144 39195 48539 58007 333 10300 20275 91007=
68237 46/// /2506 10316 21151 38900 48537 57010 333 10331 20313 91010=
68241 46/// /2703 10343 20000 38966 48511 57015 333 10348 20337 91007=
68248 46/// /2406 10323 21075 38939 48535 57007 333 10345 20322 91014=
68255 46/// /2605 10318 21007 38837 48499 58007 333 10331 20317 91011=
68257 46/// /2605 10328 20011 38904 48503 58008 333 10338 20321 91010=
68258 46/// /0102 10314 20081 38829 48510 58011 333 10334 20301 91011=
68260 46/// /3103 10290 20033 38627 48511 52494 333 10300 20284 91010=
68267 42570 43114 10231 20065 38241 48506 57005 82202 333 10254 20230 91021=
68269 46/// /0000 10330 20033 38558 48500 57006 333 10377 20278=
68271 46/// /3307 10311 20102 38896 48515 57011 333 10328 20307 91015=
68273 46/// /3306 10263 20122 38455 48508 57010 333 10275 20257 91011=
68274 46/// /2507 10281 20033 38620 48517 57007 333 10292 20278 91013=
68283 46/// /0406 10237 20119 38892 48537 57005 333 10270 20237 91016=
68285 46/// /3003 10232 20066 38153 48522 58003 333 10239 20222 91006=
68287 46/// /0506 10203 20126 38585 48521 57007 333 10232 20202 91011=
68289 46/// /0611 10251 20131 39155 48537 57006 333 10263 20251 91019=
68291 46/// /1307 10300 20152 39543 48562 57012 333 10312 20297 91013=
68297 46/// /0902 10263 20158 39935 48586 53001 333 10308 20263 91008=
68329 46/// ///// 10295 21049 39101 48549 57011 333 10308 20292=
68331 46/// /2410 10268 21099 38834 48526 57008 333 10284 20268 91016=
68333 46/// /2306 10270 21045 38690 48517 57012 333 10280 20263 91013=
68335 46/// /3006 10288 21000 38891 48515 57012 333 10307 20274 91012=
68341 46/// /3208 10289 21041 38527 48525 58003 333 10308 20288 91015=
68343 46/// /2206 10263 21030 38783 48513 57008 333 10297 20260 91008=
68347 46/// /2308 10288 21069 38671 48505 58006 333 10312 20288 91015=
68348 46/// /2207 10268 20166 38788 48560 58001 333 10295 20268 91011=
68349 46/// /2508 10277 21051 38500 48493 51002 333 10296 20273 91014=
68355 46/// /2407 10251 21040 38566 48507 57006 333 10285 20251 91012=
68361 46/// /3102 10279 20024 38377 48495 58008 333 10289 20278 91005=
68375 46/// ///// 10267 21047 38332 48499 57012 333 10273 20260=
68376 46/// /2813 10239 21070 38238 48493 58005 333 10258 20230 91021=
68382 46/// /0908 10210 20162 39362 48543 57008 333 1//// 20209 91014 555 20022 91017=
68386 46/// ///// 10246 20167 39721 48647 57045 333 10295 20246 555 91026=
68387 46/// /0407 10176 20127 38869 48526 56005 333 10225 20176 91013=
68392 46/// /1209 10179 20136 38942 48536 57005 333 10196 20175 91014 555 91020=
68397 46/// /1203 10221 20183 30066 40161 57006 333 10251 20221 91006=
68403 46/// /2025 10200 20096 30142 40170 57010 333 10221 20199 91033=
68411 46/// /1912 10324 21002 39933 48603 57019 333 10343 20310 91019=
68425 46/// /2207 10310 21025 39431 48574 57015 333 10320 20300 91010=
68429 46/// /2411 10285 21045 38690 48516 57007 333 10304 20282 91017=
68439 46/// /2309 10246 21018 38888 48513 57010 333 10270 20245 91015=
68443 46/// /2609 10238 21050 38603 48510 57011 333 10267 20238 91016=
68447 46/// /2507 10247 21043 38713 48513 57009 333 10279 20247 91013=
68449 46/// /2506 10231 20004 38380 48504 57007 333 10245 20229 91013=
68471 46/// /1514 10170 20109 38320 48501 56005 333 10243 20170 91019=
68474 42/// /0804 10204 20103 38618 48510 52008 333 10231 20204 91009=
68479 46/// /1315 10195 20118 38943 48507 57005 333 10238 20194 91022=
68481 46/// /0604 10196 20149 39792 40162 52004 333 10231 20196 91006=
68485 46/// /1513 10126 20098 38633 48523 56001 333 10181 20126 91018=
68487 46/// /0905 10123 20084 39014 48523 57005 333 10153 20123 91008=
68491 46/// /1507 10206 20160 30153 40162 52002 333 10266 20206 91012=
68493 46/// /1209 10181 20119 39563 48545 52005 333 10236 20181 91013=
68494 46/// /1603 10196 20140 30041 40174 57002 333 10253 20196 91007=
68495 46/// /1908 10214 20168 30128 40170 58001 333 10244 20214 91012=
68513 46/// /1422 10185 20085 30079 40191 56003 333 10219 20185 91027=
68516 46/// /2014 10221 20052 39912 48602 53008 333 10287 20221 91021=
68523 46/// /2312 10257 21017 39118 48543 57009 333 10273 20257 91022=
68527 46/// /2310 10274 21053 39071 48526 57011 333 10283 20266 91017=
68541 46/// /3205 10239 21016 38625 48514 57003 333 10261 20237 91011=
68543 46/// /2809 10230 20003 38724 48498 57013 333 10251 20230 91016=
68549 46/// /3205 1//// 2//// 38746 4//// 57003 333 1//// 2//// 91010=
68553 46/// /2404 10186 20012 38224 48513 57008 333 10196 20171 91010=
68558 46/// /2510 10178 21008 38192 48505 57002 333 10187 20165 91016=
68573 46/// /0904 10142 20104 38890 48533 56005 333 10174 20141 91009=
68575 46/// /1305 10140 20111 39121 48535 56006 333 10176 20140 91008=
68577 46/// /0809 10098 20082 38574 48522 56003 333 10168 20097 91015=
68579 46/// /1909 10140 20130 39600 48546 55000 333 10205 20140 91013=
68581 46/// /1305 10152 20118 39408 48541 56004 333 10193 20152 91011=
68582 46/// /1210 10149 20118 39346 48531 52003 333 10190 20149 91016=
68583 46/// /1808 10191 20154 30070 40181 56002 333 10249 20191 91017=
68585 46/// /1512 10180 20139 30163 40180 57006 333 10214 20180 91018=
68587 46/// /1907 10184 20126 30173 40189 55000 333 10206 20182 91012=
68589 46/// /1607 10116 20084 38259 48520 56001 333 10165 20116 91009=
68591 46/// /1905 10157 20147 30010 40191 56001 333 10200 20157 91008=
68593 46/// /1809 10196 20157 30166 40182 56001 333 10239 20194 91014=
68594 42470 71809 10188 20153 30072 40179 53001 875// 333 1//// 2////=
68613 46/// /2111 10159 20100 30084 40196 56002 333 10203 20158 91021=
68619 46/// /2315 10190 20048 39353 48543 57003 333 10231 20190 91024=
68633 46/// /1810 10212 20021 38506 48501 57010 333 10229 20212 91018=
68647 46/// /0813 10174 20063 38932 48532 53003 333 10202 20174 91019=
68649 46/// /3111 10195 21014 38403 48516 58007 333 10198 20179 91022=
68651 46/// /0208 10130 20081 38573 48535 55000 333 10168 20130 91014=
68677 46/// /2105 10156 20141 30093 40199 53003 333 10234 20156 91010=
68710 46/// /2208 10214 20070 30172 48604 57000 333 10262 20214 91014=
68711 46/// /2310 10230 20056 30063 40179 56002 333 10267 20230 91021=
68723 46/// /1907 10220 20018 39417 48554 57010 333 10232 20216 91014=
68727 46/// /1907 10212 20011 39137 48528 58008 333 10234 20207 91011=
68737 46/// /1608 10194 20063 39269 48542 53001 333 10219 20194 91016=
68747 46/// /1307 10161 20100 39667 48564 56005 333 10208 20160 91013=
68813 46/// /1805 10192 20111 30200 40202 57002 333 10217 20174 91010=
68823 46/// /1406 10220 20064 39553 48562 57017 333 10243 20217 91012=
68825 46/// /1705 10210 20055 39559 48566 57012 333 10226 20210 91010=
68829 46/// /1504 10150 20118 39900 40212 56007 333 10196 20150 91011=
68833 46/// /1306 10139 20095 39537 48555 53001 333 10187 20139 91010=
68835 46/// /1503 10159 20109 30106 40220 56001 333 10199 20159 91007=
68837 46/// /1208 10163 20088 30155 40211 57003 333 10189 20159 91013=
68839 46/// /1208 10153 20099 30024 48581 57005 333 10201 20153 91013=
68840 46/// /1610 10144 20088 39603 48557 55000 333 10216 20144 91014=
68841 46/// /1406 10168 20102 30041 48590 57002 333 10220 20167 91011=
68843 46/// /1903 1//// 2//// 30109 4//// 57005 333 1//// 2//// 91006=
68844 46/// /1708 10166 20088 30147 40218 56001 333 10182 20164 91012=
68846 46/// /1707 10176 20090 30196 48609 57008 333 10196 20176 91012=
68848 46/// /1705 10178 20076 30200 48609 57002 333 10196 20177 91010=
68849 46/// /1710 10126 20092 39460 48550 56005 333 10165 20125 91016=
68911 46/// /1506 10212 20099 30191 40199 58002 333 10222 20190 91012=
68918 46/// /1509 10175 20124 30192 40208 57001 333 10196 20174 91017=
68921 46/// /1111 10164 20114 30222 40226 56001 333 10192 20164 91017=
68922 46/// /1207 10176 20098 30038 48601 53006 333 10230 20176 91013=
68923 46/// /1105 10187 20093 30029 48603 56002 333 10245 20187 91013=
68924 46/// /1713 10186 20119 30198 48614 53001 333 10222 20172 91019=
68925 46/// /1603 10167 20089 39860 48582 52002 333 10194 20163 91008=
68927 46/// /1012 10177 20113 30089 40211 53001 333 10230 20177 91019=
68931 46/// /1307 10158 20120 30060 40225 56003 333 10186 20158 91013=
68933 46/// /1109 10172 20125 30214 40222 57003 333 10214 20172 91012=
68935 46/// /1005 10158 20093 30145 40209 56003 333 10198 20157 91011=
68939 46/// /1606 10169 2//// 30209 40219 56003 333 10191 20168 91009=
68940 46/// /1508 1//// 2//// 30215 4//// 56007 333 1//// 2//// 91012=



SMUS60 KWBC 161500
AAXX 16154
60001 22687 13613 10247 20177 30160 40197 56014 81100 333 60007=
60005 22680 10407 10247 20154 30148 40184 58012 81800 333 60007=
60010 26/70 /3205 48/// 333 60007=
60015 22480 33012 10206 20141 39493 40190 56010 83801 333 60007=
60020 26/70 /0508 10267 20127 30146 40187 56013 333 60007=
60025 26/// /0916 10263 20174 30100 40188 56013 333 60007=
60030 22670 10318 10256 20161 30132 40186 56015 81200 333 60007=
60035 22670 30514 10260 20173 30143 40177 56017 83800 333 60007=
60040 22582 53614 10262 20164 30156 40180 56012 85801 333 60007=
60096 32960 00123 10229 20171 40155 58012=
60320 26/70 /2804 10236 20151 30032 40133 55002 333 60007=
60338 22481 53007 10211 20159 30074 40138 53003 85170 333 60007 82816 84358=
60351 42570 70407 10243 20184 40118 55004 84802 333 83820 86070 95900=
60353 42565 70206 10238 20187 40112 56003 84802 333 83820 85070 91837 95900=
60355 42560 50606 10252 20169 40111 57010 82242 333 82830 83073 95900=
60360 42562 70705 10236 20161 40117 56011 82832 333 81826 83359 95900=
60369 41558 80000 10207 20161 40123 53001 76162 86880 333 83823 83626 91836=
60390 41556 70506 10185 20167 40136 56003 79596 8497/ 333 82820 81926 83646 85358 95900=
60395 42660 83014 10203 20153 40135 53004 83802 333 83833 85073 95900=
60402 42570 70000 10236 20183 40124 53002 83232 333 83823 85359 95900=
60403 42665 61002 10240 20156 40128 56008 83202 333 83836 85075 95900=
60419 42560 72311 10191 20120 40132 55001 8323/ 333 83826 86359 95900=
60421 42665 72409 10186 20128 39124 48491 55002 84232 333 84833 83070 95900=
60423 42565 71804 10186 20128 39179 48472 56004 84902 333 81930 83840 95900=
60425 42560 62406 10205 20126 40128 56006 83220 333 83823 84460 95900=
60430 42565 71008 10186 20124 40133 58003 85832 333 82820 85633 95900=
60437 41458 80204 10133 20111 38943 48457 58006 72196 83930 333 82713 81926 85360 95900=
60444 42560 70000 10182 20110 39066 48497 55005 86202 333 86830 95900=
60445 42565 72006 10165 20097 38996 48489 55005 83902 333 83826 81933 85073 95900=
60452 41560 72404 10191 20156 40115 55008 76162 86530 333 86623 83360=
60457 41558 61604 10176 20154 40126 56009 70362 82112 333 82820 83460 95900=
60461 41456 82002 10183 20165 40120 55003 78182 88830 333 82816 85620 91826 95990=
60467 41558 71006 10169 20150 40132 55005 72162 878// 333 83830 85633 95900=
60468 41558 70804 10171 20124 39201 48488 50003 72162 86832 333 83820 85626 95900=
60475 41565 72404 10182 20129 39225 48511 56007 70362 84930 333 81930 84840 85360 95900=
60490 41550 82010 10176 20166 40123 56005 78186 86530 333 86626 84360 95990=
60492 41560 72203 10181 20145 40132 58007 72162 83280 333 83826 84360 95900=
60507 41560 70000 10172 20155 40137 56004 76062 875// 333 87626 95900=
60511 41560 62104 10140 20104 39024 48477 58004 72162 84830 333 82823 83626 95900=
60514 41560 83007 10152 20141 39236 48492 50003 76062 8323/ 333 83826 86360 95900=
60515 41557 71506 10184 20164 40134 57001 72996 879// 333 82930 86833 95900=
60517 42560 72207 10207 20165 40133 57005 8523/ 333 85826 83360 95900=
60518 42565 73012 10204 20161 40104 55004 86870 333 81820 85626 95900=
60520 41565 82712 10163 20155 40133 55002 72162 888// 333 84826 86630 95900=
60522 41558 72709 10156 20138 40145 53003 72162 84230 333 84826 85360 95970=
60525 42660 61204 10248 20172 40125 56003 86200 333 86840 95900=
60531 41560 72108 10181 20156 40136 55003 70162 85230 333 85826 83360 95900=
60535 41558 71804 10139 20118 38809 48483 55000 79562 879// 333 85826 83930 95900=
60536 41556 80000 10162 20129 39274 48475 55007 76062 888// 333 84830 85633 95970=
60540 42565 83206 10174 20094 38979 48461 56012 888// 333 84826 85630 95900=
60549 42557 72816 10188 20094 38890 48503 56009 84280 333 84826 84360 95900=
60550 42565 63304 10150 20096 38625 48483 57005 85830 333 81823 85626 95900=
60555 42658 80411 10261 20142 40109 56017 8423/ 333 84840 84360=
60557 42670 63410 10189 20077 38828 48485 55004 84280 333 84833 83360 95900=
60559 42560 60414 10253 20129 40109 56023 86800 333 83820 83623=
60560 42670 63407 10223 20083 38912 48480 57013 82232 333 82833 83360 95900=
60566 41630 81017 10246 20126 40102 56012 70722 8223/ 333 82846 87360=
60571 42665 13613 10272 20062 39190 48486 56005 81202 333 81833 95900=
60580 41625 60716 10279 20124 40093 56014 70711 83230 333 83846 83360=
60581 41630 70514 10276 20137 40097 56012 70622 84532 333 84640=
60590 42659 60506 10323 20120 40061 56020 81240 333 81846 85360=
60602 42956 40511 10308 20029 40055 57014 80002 333 84073 95900=
60607 42960 32605 10351 20040 40053 56016 80001 333 83075=
60611 42960 22214 10355 21003 40083 56012 80002 333 82070=
60620 41730 52225 10352 21024 40054 57024 70722 82232 333 82850 83075=
60630 41916 42525 10368 2//// 40077 58028 70700 82032 333 82362 83075=
60640 41850 32820 10370 20007 40078 56010 70700 82031 333 82358=
60656 42660 32822 10323 21006 40087 56016 82280 333 82846=
60670 42658 31812 10338 20060 39055 48526 56014 83100 333 83846 95900=
60680 42662 52712 10312 21003 38653 48533 57008 83230 333 83846 83360 95900=
60686 42960 03312 10381 21003 40105 57016=
61017 42960 50000 10400 20130 39705 40096 80002 333 59001 85080=
61024 42960 50808 10385 20061 39547 40090 81032 333 58005 81364 85080=
61036 42660 72604 10400 20164 39851 40081 83102 333 59020 83840 85080 94919=
61043 42660 60402 10380 20160 39654 40080 84202 333 58000 84840 83080 94919=
61045 42960 70806 10060 39600 40101 80008 333 58001 87280=
61049 42960 70806 10089 39/// 4//// 80008 333 5//// 87280=
61075 42660 71206 10393 20174 39784 40083 82208 333 59005 82640 86280 94938=
61080 42560 71206 10370 20175 39679 40087 81108 333 59002 81830 87280 94907=
61090 42660 51410 10385 20060 39582 40073 81102 333 59009 81840 85080=
61091 42665 61404 10370 20165 39649 40089 81108 333 59002 81840 86280 94909=
61096 42965 70804 10390 20113 39709 40077 80008 333 59002 87280=
61099 42965 70000 10342 20251 39863 40087 81046 333 59003 81364 87280=
61230 42560 63602 10363 20181 39853 40124 83540 333 58013 83630 85365=
61233 42960 73602 10370 20140 39826 40119 87072 333 58024 87365=
61235 42560 73204 10370 20202 30001 40114 82970 333 58012 82830 83940 85365 94942 95872=
61257 42960 73006 10330 20212 30061 40124 85042 333 58008 85365 83075=
61265 42960 43410 10355 20182 39804 40104 83042 333 59007 83365 84075=
61270 42560 41404 10357 20211 39745 40113 82542 333 58010 82630=
61272 42560 50404 10368 20198 3//// 4//// 81542 333 5//// 81630 84365=
61277 42960 33604 10360 20183 39786 40101 83042 333 59004 83365=
61285 42560 53204 10326 20232 39966 40115 82532 333 58019 82630 85075=
61291 42560 41006 10346 20197 39705 40108 82542 333 58004 82630 83075=
61293 41560 60408 10350 20194 39698 40100 71792 84940 333 59001 83830 81940 84365 94940 95870=
61296 42560 51404 10330 20219 39717 40107 85902 333 58001 85630 81940 94942 95832=
61297 42560 70404 10344 20161 39646 40105 84502 333 58003 84620 83075=
61701 42460 60506 10306 20256 40132 82530 333 58034 82613 84363=
61707 42460 62703 10338 20249 4//// 82570 333 5//// 82613 84463=
61901 42483 41314 10185 20130 39673 40179 56020 84800 91450 333 83816=
61970 46/// /2301 10278 20227 30135 40146 333 58002=
61980 24786 /1208 10228 20154 40181 700// 333 59010 60007 90710 91113 555 60005=
61986 22470 41207 10251 20212 40171 84200 333 59009 60007 84818=
61988 21320 80517 10210 20204 40190 76382 88800 333 59006 60057 82708 85815 85645 91130=
61990 22470 40811 10236 20184 40189 84800 333 59012 60007 84816=
61995 22470 21006 10195 20166 39702 82800 333 59010 60007 82817 91120=
61996 26/// /2106 10109 20052 30224 40260 53018 333 4//// 60007 90710 91112 555 60005=
61998 26/// /3215 10054 20009 30075 40112 56013 333 58022 60007 90710 91121 555 60005=
62271 46/// /0403 10357 20019 39669 40144 56006=
62306 32560 23506 10250 20178 40186 52001 82500=
62309 32560 23405 10255 20161 40163 57003 82500=
62318 32560 33410 10252 20169 40163 57002 83100=
62332 32960 03110 10253 20183 40160 57001=
62337 32960 03107 10256 20167 40148 54000=
62357 32960 00206 10268 20158 40161 41198 41660 32712 10296 30074 40127 7019=
62366 35560 33511 10278 20144 40152 54000 83200=
62387 32960 03609 10281 20140 40135 57002=
62393 32960 03414 10292 20128 40161 57005=
62405 32960 03105 10322 20134 40105 57007=
62417 32960 01204 10310 20104 40159 57006=
62420 32960 03505 10290 20090 40156 57007=
62423 32960 00104 10304 20109 40149 62309 32560 23405 10255 20161 40163 5700=
62435 32960 03409 10312 20126 40118 57003=
62440 32960 03612 10264 20153 40155 62458 32960 02815 10272 20179 40126 5400=
62455 32560 23106 10278 20157 40160 54000 82100=
62459 32960 03020 10272 20200 40113 57003=
63654 32570 61402 10238 20204 3//// 48/// 8291/ 333 10292 5//// 82820 81922 85462 555 10215=
63680 32560 32702 10268 20196 3//// 48/// 83900 333 10288 5//// 83823 81925 555 10220=
63682 32570 62005 10270 20196 38816 48/// 86963 333 10300 59012 86822 81925 555 10220=
63684 31580 73212 10285 20171 38813 48/// 71722 85953 333 10302 59016 85822 81928 87072 555 10210=
63702 32520 50710 10266 20154 38564 48/// 81933 333 10290 59015 81827 81930 83363 555 10194=
63705 32560 21607 10250 20187 38835 48492 82905 333 59022 82822 81924 82275 555 10205=
63726 21530 82702 10175 20159 76166 8497/ 333 10250 60107 83618 81920 88461 555 10165=
63980 42480 11408 10275 20236 40134 81100 333 58003 81819 94313 91115=
64401 41559 83204 10234 20216 39728 40098 79196 8692/ 333 58006 85620 81926 94947 95837=
64403 41560 80000 10245 20217 39/// 40/// 72996 8897/ 333 5//// 81926 88460 94943 95833=
64405 41360 70604 10238 20201 39495 4//// 71796 8297/ 333 58003 81608 81927 87460 94941 95831=
64450 41475 82910 10265 20206 39733 40084 70142 84963 333 58002 81710 83620 82930 88080 94949 95879=
64454 42460 71806 10265 20221 39/// 40/// 879// 333 5//// 86617 81930 94944 95834=
64456 42560 60404 10319 20206 39/// 40/// 84902 333 5//// 83826 81933 84080 94966 95836=
64458 41560 71406 10310 20215 39676 40059 71792 8297/ 333 59022 85823 81930 87362 94964 95834=
64459 41560 61802 10300 20225 39786 40073 71791 85906 333 59020 83820 83930 84280 94979 95839=
64460 41560 60000 10266 20/// 39/// 40/// 72996 84961 333 5//// 82820 82930 84080 94979 95839=
64462 42560 62204 10320 20236 39/// 40/// 84902 333 5//// 83823 81930 86080 94967 95837=
64463 42560 33606 10320 20215 39/// 40/// 84903 333 5//// 82826 82930 83080 94961 95831=
64500 41460 73210 10274 20255 30097 40111 71799 879// 333 58006 83810 81920 87633 94947 95837=
64501 41360 61808 10265 20241 30099 40108 70196 84530 333 59002 84608 86361=
64510 41457 8//// 10230 20209 39435 40101 76266 8357/ 333 58005 83610 88457=
64550 42460 6//// 10285 20235 3//// 4//// 86800 333 5//// 84813 86626 94939 95839=
64551 42460 3//// 10308 20241 3//// 4//// 83200 333 5//// 83812 94925 95835=
64556 42460 6//// 10295 20215 3//// 4//// 85903 333 5//// 83815 83920 86080 94961 95871 95873=
64560 42260 6//// 10268 20232 3//// 4//// 83202 333 5//// 83805 86073 94900 95810=
64700 42960 60410 10394 20080 39741 40070 80002 333 59007 86075=
64706 42660 30206 10355 20218 39605 40065 81102 333 59004 81840 83075 94909=
64709 42660 50410 10350 20183 3//// 4//// 81202 333 5//// 81840 85075 94919=
64751 42960 50000 10364 20131 3//// 4//// 80002 333 5//// 85075=
64753 42960 00404 10395 20077 39841 4//// 333 5////=
64758 42662 22204 10370 20134 3//// 4//// 82200 333 5//// 82840 94902=
65201 42460 70905 10257 20232 30079 40128 84538 333 55408 4//// 58010 84610 85360 94464=
67012 46/// /2802 10281 20206 30130=
67215 42580 10510 10260 20222 40147 81100 333 59003=
67217 41556 20907 10276 20110 38674 48539 70411 82130 333 59001=
67237 42570 30805 10337 20122 40106 83200 333 59015=
67261 42570 51706 10390 20178 40051 84230 333 59043=
67283 42580 41115 10282 20236 40110 84201 333 59002=
67297 42470 71815 10269 20237 40118 878// 333 58020=
67315 42580 61307 10268 20235 40137 56006 86200=
67323 42580 51410 10259 20206 40151 57019 85800=
67665 41960 61403 10284 20116 48510 86030 333 58010 86360=
68006 42989 02404 10388 21070 38904 48507 57016 333 10396 20380 91008=
68010 46/// /0000 10368 21061 38895 48516 57006 333 10382 20365=
68014 42889 22605 10360 20051 38581 48497 56019 81082 333 1//// 2//// 9//// 555 91017=
68018 42789 12506 10375 21001 38883 48505 56019 81400 333 1//// 2////=
68110 46/// /3203 10324 21180 38286 48496 57011 333 10327 20301 91008=
68112 42989 03403 10307 21157 38330 48506 57015 333 10310 20279 91007=
68116 46/// /2303 10362 21118 38448 48392 58015 333 10369 20345 91007=
68174 41770 20514 10272 20130 38781 48513 57010 70500 81230 333 10288 20272 91019=
68190 46/// /0707 10286 20146 39464 48592 57013 333 10307 20282=
68192 42970 00904 10271 20162 39497 48591 58011 333 10279 20257 91008=
68212 46/// /1502 10329 21113 38919 48551 57013 333 10332 20313 91005=
68242 42980 42510 10301 21111 38725 48513 58002 80002 333 10325 20299 91018=
68250 46/// /3205 1//// 2//// 38950 4//// 58003 333 1//// 2//// 91010=
68254 46/// /3205 10319 21006 38774 48514 57011 333 10352 20319 91011=
68263 42680 33107 10284 20049 38487 48510 58005 81502 333 10292 20284 91011=
68268 46/// /2204 10310 20034 38865 48519 57003 333 10347 20310 91008=
68272 46/// /3605 10309 20111 39062 48528 57010 333 10325 20306 91011=
68286 46/// /0612 10200 20110 38362 48516 58000 333 10259 20200 91018=
68290 41560 41012 10243 20133 39186 48548 56002 70500 84500 333 10273 20242 91017=
68300 46/// /2021 10232 20123 39989 40136 57011 333 10235 20230 91027=
68322 46/// /2206 10311 21051 39149 48544 57005 333 10322 20309 91012=
68336 46/// /0403 10271 21014 38834 48515 57018 333 10297 20271 91005=
68342 46/// ///// 10268 21071 38506 48504 57001 333 10302 20265=
68350 46/// /3007 10290 21067 38649 48505 57006 333 10320 20285 91012=
68351 46/// /3205 10273 20012 38428 48506 57013 333 10289 20271 91009=
68352 46/// /1907 10264 20044 38353 48505 57011 333 10289 20257 91012=
68362 46/// /0805 10276 21078 38494 48502 58001 333 10299 20276 91014=
68368 32982 63610 10260 20035 38317 48511 57010 82067=
68380 46/// /0709 10215 20124 38352 48515 57003 333 10270 20215 91015=
68400 42/// /1106 10228 20169 30079 40152 53001 333 10259 20228 91011=
68408 46/// /1514 10173 20114 30170 40179 57008 333 10188 20172 91023=
68416 46/// /2307 10258 21078 39056 48543 57003 333 10272 20255 91012=
68438 42982 52312 10262 21051 38811 48512 56002 80002 333 10290 20261 91018=
68442 42880 62610 10236 21084 38645 48501 57010 80005 333 10259 20236 91016=
68461 42680 62308 10224 21014 38321 48505 57006 81102 333 10246 20224 91013=
68478 42/// /1607 10168 20100 38837 48490 52007 333 10222 20163 91013=
68488 46/// /1202 10170 20113 39287 48531 52003 333 10215 20170 91005=
68512 42882 52011 10225 20017 39047 48550 57003 81082 333 10254 20225 91018=
68538 42982 62610 10224 21014 38721 48508 57010 80002 333 10237 20222 91015=
68542 46/// /3408 10223 20015 38535 48503 57012 333 10248 20223 91013=
68546 46/// /2505 10225 21000 38650 48501 57011 333 10235 20215 91009=
68588 46/// /1507 10181 20153 30074 48579 57003 333 10235 20181 91011=
68614 46/// /2107 10200 20091 30149 40198 53006 333 10264 20200 91017=
68618 42880 62113 10227 20001 39078 48550 57008 81088 333 10241 20226 91021=
68648 46/// /2106 10165 21001 38261 48522 58006 333 10192 20165 91011=
68668 41456 81413 10131 20108 39331 48538 55000 75022 886// 333 10215 20131 91017=
68674 46/// /2502 10183 20154 30159 40190 53001 333 10239 20183 91005=
68722 46/// /2405 10181 21015 38566 48524 57001 333 10204 20181 91012=
68744 46/// /1415 10171 20055 39119 48530 57013 333 10199 20171 91021=
68752 46/// /1610 10128 20096 39519 48555 56001 333 10154 20127 91015=
68754 46/// /2004 10096 20085 39164 48530 52010 333 10186 20096 91010=
68816 42580 71813 10182 20109 30152 40207 56006 81508 333 91020=
68828 42470 71213 10150 20118 39976 40213 55003 872// 333 10182 91019=
68832 46/// /0504 10182 20062 39230 48551 57006 333 10204 20172 91008=
68842 42682 71607 10163 20098 30129 40212 55002 85508=
68906 41598 62613 10122 20067 39921 49985 53003 70266 85201 333 10129 20096 91032 555 20070 90998=
68916 46/// /0708 10156 20106 39940 40211 57003 333 10190 20153 91013=
68926 46/// /1209 10174 20098 30037 40217 52010 333 10223 20174 91016=
68928 46/// /1110 10160 20108 30048 40209 56005 333 10191 20160 91016=
68994 42397 81622 10032 20023 39920 49949 53015 886// 333 10058 20031 91029 555 20004 90994=